Terminal Aerodrome Forecast
Issued by NWS

Home | Current Version | Previous Version | Text Only | Print | Product List | Glossary On
Versions: 1 2 3 4 5 6 7 8 9 10 11 12 13 14 15 16 17 18
000
FTUS41 KPBZ 201700
TAFFKL
TAF
KFKL 201723Z 2018/2118 20012G15KT P6SM OVC100
     FM202200 20008KT 6SM -SHRA OVC040
     FM210300 22005KT 5SM -SHRA OVC015
     FM210600 25006KT 5SM -SHRA OVC010
      AMD LTD TO CLD VIS AND WIND=

USA.gov is the U.S. government's official web portal to all federal, state and local government web resources and services.